Portada
METAR-TAF:

METAR-TAF

Aeropuertos :

Jim Kelly Field

Lexington, Nebraska, Estados Unidos

latitud: 40-47-28N, longitud: 099-46-38W, altitud: 736 m

Observación

El informe se hizo hace 27 minutos, a las 06:55 UTC
Viento 18 kt del sur con ráfagas de 28 kt
Temperatura 26°C
Humedad 54%
Presión 1008 hPa
Visibilidad: 16.1 km
Cielo despejado

METAR: KLXN 070655Z AUTO 17018G28KT 10SM CLR 26/16 A2976 RMK AO2 T02570164

Hora: 02:22 (07:22 UTC)


TAF: falta

Observaciones y pronósticos meteorológicos de más de 4000 aeropuertos (mensajes METAR y TAF).

Los puntos amarillos y rojos representan las estaciones disponibles.

Ponga el ratón en el punto deseado para ver el nombre de la estación.

Haga clic para ver las observaciones y los pronósticos meteorológicos.

Para cambiar el mapa : haga clic en los botones verdes con una cruz de color negro para hacer un zoom, en el botón verde con un guión para alejar o en las flechas verdes para mapas adyacentes.


METAR-TAF: